createdAt,value
2023-03-22T00:00:54.301Z,104.77
2023-03-22T00:01:54.308Z,104.23
2023-03-22T00:02:54.307Z,104.53
2023-03-22T00:03:54.328Z,104.84
2023-03-22T00:04:54.226Z,104.53
2023-03-22T00:05:54.305Z,105.18
2023-03-22T00:06:54.193Z,103.94
2023-03-22T00:07:54.176Z,104.74
2023-03-22T00:08:54.172Z,103.71
2023-03-22T00:09:54.142Z,103.95
2023-03-22T00:10:54.111Z,104.25
2023-03-22T00:11:54.100Z,103.90
2023-03-22T00:12:54.075Z,103.81
2023-03-22T00:13:54.059Z,103.77
2023-03-22T00:14:54.093Z,103.63
2023-03-22T00:15:54.046Z,103.51
2023-03-22T00:16:53.996Z,103.78
2023-03-22T00:17:53.998Z,103.65
2023-03-22T00:18:53.952Z,102.95
2023-03-22T00:19:53.948Z,103.32
2023-03-22T00:20:53.926Z,102.68
2023-03-22T00:21:53.891Z,103.18
2023-03-22T00:22:53.878Z,102.63
2023-03-22T00:23:53.844Z,102.97
2023-03-22T00:24:53.832Z,103.17
2023-03-22T00:25:53.816Z,102.31
2023-03-22T00:26:53.788Z,102.53
2023-03-22T00:27:53.774Z,102.88
2023-03-22T00:28:53.762Z,102.52
2023-03-22T00:29:53.748Z,102.33
2023-03-22T00:30:53.712Z,102.25
2023-03-22T00:31:53.784Z,101.90
2023-03-22T00:32:53.682Z,102.14
2023-03-22T00:33:53.675Z,101.55
2023-03-22T00:34:53.654Z,102.09
2023-03-22T00:35:53.744Z,101.84
2023-03-22T00:36:53.624Z,101.17
2023-03-22T00:37:53.591Z,102.48
2023-03-22T00:38:53.558Z,101.72
2023-03-22T00:39:53.544Z,101.24
2023-03-22T00:40:53.530Z,101.48
2023-03-22T00:41:53.513Z,100.85
2023-03-22T00:42:53.478Z,101.60
2023-03-22T00:43:53.468Z,100.87
2023-03-22T00:44:53.431Z,101.72
2023-03-22T00:45:53.473Z,101.82
2023-03-22T00:46:53.400Z,100.97
2023-03-22T00:47:53.418Z,101.63
2023-03-22T00:48:53.380Z,100.81
2023-03-22T00:49:53.354Z,101.20
2023-03-22T00:50:53.335Z,100.65
2023-03-22T00:51:53.363Z,100.97
2023-03-22T00:52:53.292Z,100.69
2023-03-22T00:53:53.277Z,100.65
2023-03-22T00:54:53.253Z,99.28
2023-03-22T00:55:53.232Z,100.61
2023-03-22T00:56:53.213Z,99.65
2023-03-22T00:57:53.194Z,100.04
2023-03-22T00:58:53.175Z,100.07
2023-03-22T00:59:53.145Z,99.96
2023-03-22T01:00:53.200Z,99.51
2023-03-22T01:01:53.136Z,100.27
2023-03-22T01:02:53.088Z,99.24
2023-03-22T01:03:53.205Z,99.72
2023-03-22T01:04:53.053Z,99.82
2023-03-22T01:05:53.021Z,99.95
2023-03-22T01:06:52.983Z,100.25
2023-03-22T01:07:52.959Z,98.97
2023-03-22T01:08:52.956Z,99.00
2023-03-22T01:09:52.925Z,99.49
2023-03-22T01:10:52.905Z,98.35
2023-03-22T01:11:52.887Z,99.04
2023-03-22T01:12:52.861Z,99.35
2023-03-22T01:13:52.837Z,98.17
2023-03-22T01:14:52.807Z,98.84
2023-03-22T01:15:52.781Z,98.21
2023-03-22T01:16:52.783Z,99.06
2023-03-22T01:17:52.732Z,98.72
2023-03-22T01:18:52.699Z,97.89
2023-03-22T01:19:52.696Z,98.11
2023-03-22T01:20:52.673Z,97.83
2023-03-22T01:21:52.633Z,98.72
2023-03-22T01:22:52.608Z,97.43
2023-03-22T01:23:52.597Z,97.82
2023-03-22T01:24:52.570Z,98.26
2023-03-22T01:25:52.565Z,97.71
2023-03-22T01:26:52.559Z,98.07
2023-03-22T01:27:52.545Z,97.39
2023-03-22T01:28:52.495Z,98.23
2023-03-22T01:29:52.467Z,97.93
2023-03-22T01:30:52.490Z,97.43
2023-03-22T01:31:52.436Z,97.50
2023-03-22T01:32:52.435Z,97.64
2023-03-22T01:33:52.403Z,97.43
2023-03-22T01:34:52.383Z,97.56
2023-03-22T01:35:52.405Z,97.27
2023-03-22T01:36:52.364Z,96.96
2023-03-22T01:37:52.339Z,96.73
2023-03-22T01:38:52.352Z,97.06
2023-03-22T01:39:52.308Z,96.49
2023-03-22T01:40:52.270Z,96.04
2023-03-22T01:41:52.263Z,96.14
2023-03-22T01:42:52.249Z,95.32
2023-03-22T01:43:52.224Z,96.17
2023-03-22T01:44:52.184Z,97.57
2023-03-22T01:45:52.246Z,97.07
2023-03-22T01:46:52.153Z,95.75
2023-03-22T01:47:52.261Z,95.21
2023-03-22T01:48:52.159Z,96.25
2023-03-22T01:49:52.102Z,94.32
2023-03-22T01:50:52.088Z,95.30
2023-03-22T01:51:52.071Z,95.36
2023-03-22T01:52:52.048Z,93.94
2023-03-22T01:53:52.017Z,94.81
2023-03-22T01:54:52.034Z,95.31
2023-03-22T01:55:51.988Z,92.71
2023-03-22T01:56:52.017Z,92.53
2023-03-22T01:57:51.964Z,92.26
2023-03-22T01:58:51.960Z,91.98
2023-03-22T01:59:51.929Z,91.44
2023-03-22T02:00:51.920Z,91.33
2023-03-22T02:01:51.955Z,91.37
2023-03-22T02:02:51.913Z,92.02
2023-03-22T02:03:51.845Z,91.72
2023-03-22T02:04:51.811Z,91.49
2023-03-22T02:05:51.792Z,91.76
2023-03-22T02:06:51.771Z,91.03
2023-03-22T02:07:51.770Z,92.22
2023-03-22T02:08:51.782Z,90.81
2023-03-22T02:09:51.716Z,91.46
2023-03-22T02:10:51.704Z,91.66
2023-03-22T02:11:51.677Z,91.92
2023-03-22T02:12:51.644Z,91.66
2023-03-22T02:13:51.641Z,91.91
2023-03-22T02:14:51.619Z,92.72
2023-03-22T02:15:51.650Z,91.77
2023-03-22T02:16:51.581Z,92.16
2023-03-22T02:17:51.557Z,90.83
2023-03-22T02:18:51.553Z,90.59
2023-03-22T02:19:51.522Z,90.89
2023-03-22T02:20:51.478Z,90.51
2023-03-22T02:21:51.447Z,90.28
2023-03-22T02:22:51.446Z,90.41
2023-03-22T02:23:51.451Z,90.10
2023-03-22T02:24:51.417Z,89.98
2023-03-22T02:25:51.384Z,90.08
2023-03-22T02:26:51.361Z,89.93
2023-03-22T02:27:51.389Z,90.12
2023-03-22T02:28:51.332Z,90.44
2023-03-22T02:29:51.316Z,89.13
2023-03-22T02:30:51.339Z,90.46
2023-03-22T02:31:51.257Z,89.89
2023-03-22T02:32:51.232Z,90.16
2023-03-22T02:33:51.223Z,89.40
2023-03-22T02:34:51.196Z,89.20
2023-03-22T02:35:51.229Z,89.76
2023-03-22T02:36:51.176Z,89.33
2023-03-22T02:37:51.147Z,89.00
2023-03-22T02:38:51.136Z,88.89
2023-03-22T02:39:51.088Z,88.84
2023-03-22T02:40:51.067Z,88.58
2023-03-22T02:41:51.070Z,88.55
2023-03-22T02:42:51.049Z,88.05
2023-03-22T02:43:51.050Z,88.48
2023-03-22T02:44:51.019Z,88.62
2023-03-22T02:45:50.980Z,88.62
2023-03-22T02:46:50.979Z,89.48
2023-03-22T02:47:50.978Z,88.97
2023-03-22T02:48:50.944Z,88.74
2023-03-22T02:49:50.924Z,88.89
2023-03-22T02:50:50.876Z,88.07
2023-03-22T02:51:50.875Z,88.12
2023-03-22T02:52:50.842Z,87.69
2023-03-22T02:53:50.848Z,88.42
2023-03-22T02:54:50.800Z,88.42
2023-03-22T02:55:50.783Z,87.52
2023-03-22T02:56:50.796Z,87.72
2023-03-22T02:57:50.759Z,87.83
2023-03-22T02:58:50.761Z,88.10
2023-03-22T02:59:50.729Z,87.90
2023-03-22T03:00:50.745Z,87.18
2023-03-22T03:01:50.781Z,87.69
2023-03-22T03:02:50.657Z,87.93
2023-03-22T03:03:50.653Z,87.35
2023-03-22T03:04:50.622Z,88.33
2023-03-22T03:05:50.597Z,87.25
2023-03-22T03:06:50.590Z,86.67
2023-03-22T03:07:50.570Z,87.09
2023-03-22T03:08:50.540Z,87.18
2023-03-22T03:09:50.542Z,87.11
2023-03-22T03:10:50.538Z,87.01
2023-03-22T03:11:50.477Z,86.81
2023-03-22T03:12:50.464Z,86.34
2023-03-22T03:13:50.440Z,86.72
2023-03-22T03:14:50.444Z,85.82
2023-03-22T03:15:50.429Z,86.20
2023-03-22T03:16:50.418Z,86.80
2023-03-22T03:17:50.379Z,86.29
2023-03-22T03:18:50.368Z,86.98
2023-03-22T03:19:50.347Z,86.76
2023-03-22T03:20:50.318Z,85.99
2023-03-22T03:21:50.313Z,86.60
2023-03-22T03:22:50.293Z,86.44
2023-03-22T03:23:50.297Z,85.74
2023-03-22T03:24:50.259Z,85.43
2023-03-22T03:25:50.248Z,86.28
2023-03-22T03:26:50.219Z,85.58
2023-03-22T03:27:50.204Z,85.59
2023-03-22T03:28:50.195Z,84.85
2023-03-22T03:29:50.198Z,85.15
2023-03-22T03:30:50.154Z,85.44
2023-03-22T03:31:50.225Z,85.56
2023-03-22T03:32:50.124Z,84.45
2023-03-22T03:33:50.110Z,85.18
2023-03-22T03:34:50.102Z,84.71
2023-03-22T03:35:50.152Z,84.78
2023-03-22T03:36:50.044Z,84.52
2023-03-22T03:37:50.015Z,84.74
2023-03-22T03:38:50.036Z,85.41
2023-03-22T03:39:49.981Z,84.99
2023-03-22T03:40:49.945Z,84.05
2023-03-22T03:41:49.939Z,84.70
2023-03-22T03:42:49.926Z,84.50
2023-03-22T03:43:49.912Z,83.84
2023-03-22T03:44:49.886Z,84.34
2023-03-22T03:45:49.990Z,83.68
2023-03-22T03:46:49.880Z,84.35
2023-03-22T03:47:49.853Z,83.70
2023-03-22T03:48:49.843Z,83.54
2023-03-22T03:49:49.829Z,83.99
2023-03-22T03:50:49.815Z,83.89
2023-03-22T03:51:49.805Z,83.70
2023-03-22T03:52:49.765Z,83.40
2023-03-22T03:53:49.753Z,83.77
2023-03-22T03:54:49.735Z,83.78
2023-03-22T03:55:49.743Z,84.08
2023-03-22T03:56:49.717Z,83.15
2023-03-22T03:57:49.704Z,83.02
2023-03-22T03:58:49.704Z,85.12
2023-03-22T03:59:49.670Z,83.51
2023-03-22T04:00:49.680Z,83.29
2023-03-22T04:01:49.652Z,82.70
2023-03-22T04:02:49.683Z,82.49
2023-03-22T04:03:49.650Z,82.68
2023-03-22T04:04:49.698Z,83.52
2023-03-22T04:05:49.617Z,83.11
2023-03-22T04:06:49.588Z,82.03
2023-03-22T04:07:49.589Z,81.82
2023-03-22T04:08:49.570Z,81.71
2023-03-22T04:09:49.553Z,82.37
2023-03-22T04:10:49.564Z,82.57
2023-03-22T04:11:49.541Z,82.70
2023-03-22T04:12:49.526Z,81.52
2023-03-22T04:13:49.526Z,82.24
2023-03-22T04:14:49.530Z,82.44
2023-03-22T04:15:49.499Z,82.22
2023-03-22T04:16:49.521Z,82.05
2023-03-22T04:17:49.496Z,82.82
2023-03-22T04:18:49.461Z,81.77
2023-03-22T04:19:49.459Z,81.68
2023-03-22T04:20:49.459Z,81.46
2023-03-22T04:21:49.444Z,80.99
2023-03-22T04:22:49.429Z,82.16
2023-03-22T04:23:49.411Z,80.89
2023-03-22T04:24:49.417Z,80.84
2023-03-22T04:25:49.392Z,81.21
2023-03-22T04:26:49.386Z,80.78
2023-03-22T04:27:49.376Z,80.38
2023-03-22T04:28:49.349Z,81.11
2023-03-22T04:29:49.351Z,81.19
2023-03-22T04:30:49.323Z,80.43
2023-03-22T04:31:49.304Z,79.65
2023-03-22T04:32:49.312Z,80.61
2023-03-22T04:33:49.283Z,80.82
2023-03-22T04:34:49.289Z,80.97
2023-03-22T04:35:49.325Z,79.93
2023-03-22T04:36:49.252Z,79.38
2023-03-22T04:37:49.242Z,79.45
2023-03-22T04:38:49.241Z,80.38
2023-03-22T04:39:49.232Z,80.86
2023-03-22T04:40:49.211Z,80.88
2023-03-22T04:41:49.201Z,80.28
2023-03-22T04:42:49.181Z,79.89
2023-03-22T04:43:49.162Z,79.45
2023-03-22T04:44:49.170Z,78.91
2023-03-22T04:45:49.143Z,79.02
2023-03-22T04:46:49.156Z,80.13
2023-03-22T04:47:49.136Z,80.03
2023-03-22T04:48:49.091Z,79.04
2023-03-22T04:49:49.108Z,78.62
2023-03-22T04:50:49.110Z,79.91
2023-03-22T04:51:49.056Z,78.95
2023-03-22T04:52:49.057Z,78.32
2023-03-22T04:53:49.029Z,79.15
2023-03-22T04:54:49.024Z,78.78
2023-03-22T10:24:43.326Z,171.51
2023-03-22T12:13:43.645Z,196.03
2023-03-22T12:14:44.384Z,193.96
2023-03-22T12:15:43.790Z,194.61
2023-03-22T12:16:43.618Z,195.63
2023-03-22T12:17:43.516Z,197.53
2023-03-22T12:18:43.475Z,199.35
2023-03-22T12:19:43.489Z,200.39
2023-03-22T12:20:43.492Z,201.76
2023-03-22T12:21:43.370Z,201.01
2023-03-22T12:23:43.278Z,202.43
2023-03-22T12:24:43.283Z,201.42
2023-03-22T12:27:43.143Z,203.68
2023-03-22T12:28:43.151Z,204.03
2023-03-22T12:29:43.139Z,203.78
2023-03-22T12:30:43.253Z,203.31
2023-03-22T12:31:43.029Z,203.78
2023-03-22T12:33:43.443Z,205.38
2023-03-22T12:36:42.849Z,206.28
2023-03-22T12:37:42.785Z,206.09
2023-03-22T12:38:42.723Z,205.77
2023-03-22T12:39:42.684Z,206.41
2023-03-22T12:40:42.849Z,205.84
2023-03-22T12:41:42.641Z,205.59
2023-03-22T12:42:50.744Z,206.77
2023-03-22T12:43:43.558Z,206.81
2023-03-22T12:44:43.421Z,206.89
2023-03-22T12:45:42.680Z,206.86
2023-03-22T12:46:42.437Z,207.39
2023-03-22T12:47:42.431Z,207.23
2023-03-22T12:48:44.602Z,207.07
2023-03-22T12:49:42.299Z,208.16
2023-03-22T12:50:42.661Z,208.34
2023-03-22T12:51:42.224Z,208.38
2023-03-22T12:52:45.651Z,208.40
2023-03-22T12:53:42.138Z,208.40
2023-03-22T12:54:42.093Z,208.44
2023-03-22T12:55:42.187Z,208.20
2023-03-22T12:56:42.048Z,208.49
2023-03-22T12:57:41.966Z,207.64
2023-03-22T12:58:42.948Z,207.44
2023-03-22T12:59:41.860Z,207.47
2023-03-22T13:00:42.032Z,207.50
2023-03-22T13:01:41.792Z,207.92
2023-03-22T13:02:41.898Z,207.78
2023-03-22T13:03:41.966Z,207.40
2023-03-22T13:04:41.872Z,207.10
2023-03-22T13:05:42.019Z,207.62
2023-03-22T13:06:41.879Z,207.18
2023-03-22T13:07:41.907Z,207.98
2023-03-22T13:08:41.943Z,207.75
2023-03-22T13:09:41.947Z,207.21
2023-03-22T13:10:42.280Z,207.79
2023-03-22T13:11:41.949Z,208.32
2023-03-22T13:12:41.922Z,207.12
2023-03-22T13:13:41.851Z,207.72
2023-03-22T13:14:41.795Z,207.83
2023-03-22T13:15:42.709Z,207.37
2023-03-22T13:16:41.814Z,206.71
2023-03-22T13:17:41.742Z,206.75
2023-03-22T13:18:41.624Z,206.81
2023-03-22T13:19:41.586Z,206.98
2023-03-22T13:20:41.825Z,207.36
2023-03-22T13:21:41.493Z,207.59
2023-03-22T13:23:41.432Z,208.05
2023-03-22T13:24:41.394Z,206.99
2023-03-22T13:25:41.554Z,206.91
2023-03-22T13:26:41.293Z,206.95
2023-03-22T13:27:41.267Z,206.92
2023-03-22T13:28:41.244Z,206.58
2023-03-22T13:29:41.163Z,206.58
2023-03-22T13:30:41.128Z,206.31
2023-03-22T13:31:41.134Z,206.02
2023-03-22T13:32:41.065Z,206.22
2023-03-22T13:33:40.999Z,206.55
2023-03-22T13:34:41.026Z,206.24
2023-03-22T13:35:41.219Z,205.84
2023-03-22T13:36:40.868Z,206.14
2023-03-22T13:37:40.838Z,205.81
2023-03-22T13:38:42.413Z,205.25
2023-03-22T13:39:40.779Z,206.31
2023-03-22T13:40:40.840Z,205.52
2023-03-22T13:41:40.646Z,204.51
2023-03-22T13:42:40.636Z,205.53
2023-03-22T13:43:40.608Z,205.40
2023-03-22T13:44:40.585Z,205.18
2023-03-22T13:45:40.790Z,205.41
2023-03-22T13:46:40.508Z,205.83
2023-03-22T13:47:40.442Z,204.77
2023-03-22T13:48:40.548Z,204.74
2023-03-22T13:49:40.338Z,205.10
2023-03-22T13:50:40.674Z,205.02
2023-03-22T13:51:40.243Z,204.72
2023-03-22T13:52:40.331Z,203.56
2023-03-22T13:53:40.183Z,204.07
2023-03-22T13:54:40.194Z,204.34
2023-03-22T13:55:40.485Z,204.80
2023-03-22T13:56:40.119Z,203.60
2023-03-22T13:57:40.080Z,204.39
2023-03-22T13:58:40.075Z,204.78
2023-03-22T13:59:40.503Z,204.03
2023-03-22T14:00:40.307Z,204.38
2023-03-22T14:01:39.959Z,204.03
2023-03-22T14:02:39.982Z,203.66
2023-03-22T14:03:40.091Z,204.96
2023-03-22T14:04:39.921Z,203.64
2023-03-22T14:05:39.905Z,204.04
2023-03-22T14:06:39.853Z,203.84
2023-03-22T14:07:39.809Z,204.32
2023-03-22T14:08:39.787Z,203.10
2023-03-22T14:09:39.949Z,203.27
2023-03-22T14:10:39.972Z,204.07
2023-03-22T14:11:39.689Z,204.60
2023-03-22T14:12:39.713Z,203.16
2023-03-22T14:13:39.660Z,203.68
2023-03-22T14:14:39.617Z,203.42
2023-03-22T14:15:39.705Z,203.60
2023-03-22T14:16:39.557Z,204.57
2023-03-22T14:17:39.552Z,203.36
2023-03-22T14:18:39.496Z,204.11
2023-03-22T14:49:31.749Z,25.00
2023-03-22T14:50:31.719Z,25.00
2023-03-22T14:51:31.653Z,25.00
2023-03-22T14:56:32.068Z,26.99
2023-03-22T14:57:36.740Z,25.00
2023-03-22T14:58:32.385Z,25.38
2023-03-22T14:59:31.329Z,25.75
2023-03-22T15:00:31.289Z,24.03
2023-03-22T15:01:31.278Z,23.83
2023-03-22T15:06:31.025Z,25.25
2023-03-22T15:07:30.993Z,26.86
2023-03-22T15:09:30.899Z,30.23
2023-03-22T15:10:30.843Z,28.35
2023-03-22T15:11:30.798Z,25.45
2023-03-22T15:12:30.765Z,28.22
2023-03-22T15:16:30.600Z,27.50
2023-03-22T15:17:30.515Z,25.68
2023-03-22T15:18:31.064Z,29.79
2023-03-22T15:20:30.441Z,29.25
2023-03-22T15:21:30.380Z,29.90
2023-03-22T15:22:30.289Z,27.20
2023-03-22T15:23:30.242Z,28.73
2023-03-22T15:27:30.087Z,28.32
2023-03-22T15:29:30.031Z,27.39
2023-03-22T15:32:29.914Z,30.78
2023-03-22T15:33:29.855Z,28.25
2023-03-22T15:34:29.827Z,27.49
2023-03-22T15:35:29.757Z,28.88
2023-03-22T15:37:29.661Z,26.83
2023-03-22T15:38:37.725Z,31.21
2023-03-22T15:39:30.586Z,31.35
2023-03-22T15:42:29.429Z,31.50
2023-03-22T15:43:29.383Z,29.07
2023-03-22T15:45:29.292Z,31.19
2023-03-22T15:46:29.256Z,29.04
2023-03-22T15:47:29.201Z,27.23
2023-03-22T15:48:29.141Z,29.21
2023-03-22T15:51:29.022Z,26.57
2023-03-22T15:52:28.930Z,30.73
2023-03-22T15:56:35.013Z,30.42
2023-03-22T15:57:29.757Z,30.59
2023-03-22T15:58:28.665Z,28.59
2023-03-22T16:01:28.536Z,31.88
2023-03-22T16:02:28.468Z,29.20
2023-03-22T16:03:28.474Z,28.77
2023-03-22T16:06:28.269Z,28.99
2023-03-22T16:08:28.163Z,29.60
2023-03-22T16:09:28.135Z,32.31
2023-03-22T16:12:28.008Z,29.33
2023-03-22T16:13:27.938Z,29.61
2023-03-22T16:14:27.902Z,29.92
2023-03-22T16:16:28.112Z,29.86
2023-03-22T16:20:29.348Z,31.00
2023-03-22T16:22:27.537Z,30.25
2023-03-22T16:23:27.481Z,30.68
2023-03-22T16:24:27.454Z,30.72
2023-03-22T16:25:27.421Z,30.79
2023-03-22T16:26:27.347Z,31.95
2023-03-22T16:31:27.276Z,27.91
2023-03-22T16:32:27.127Z,28.37
2023-03-22T16:34:27.005Z,30.94
2023-03-22T16:35:27.058Z,34.69
2023-03-22T16:36:26.932Z,31.82
2023-03-22T16:39:26.756Z,31.70
2023-03-22T16:40:26.751Z,32.86
2023-03-22T16:41:26.675Z,33.68
2023-03-22T16:43:26.585Z,31.51
2023-03-22T16:44:26.524Z,31.41
2023-03-22T16:46:26.430Z,33.00
2023-03-22T16:47:26.429Z,33.12
2023-03-22T16:50:26.255Z,31.86
2023-03-22T16:51:26.230Z,31.96
2023-03-22T16:52:26.264Z,30.95
2023-03-22T16:53:28.408Z,34.42
2023-03-22T16:55:26.057Z,34.87
2023-03-22T16:58:25.958Z,34.27
2023-03-22T17:00:25.868Z,35.35
2023-03-22T17:02:25.814Z,33.80
2023-03-22T17:03:25.733Z,31.94
2023-03-22T17:04:25.699Z,36.37
2023-03-22T17:05:25.638Z,33.47
2023-03-22T17:10:25.445Z,34.90
2023-03-22T17:12:25.402Z,32.35
2023-03-22T17:13:25.365Z,35.90
2023-03-22T17:14:25.343Z,32.39
2023-03-22T17:16:26.175Z,32.59
2023-03-22T17:17:25.185Z,32.92
2023-03-22T17:20:25.084Z,32.79
2023-03-22T17:21:25.053Z,39.52
2023-03-22T17:25:24.881Z,36.76
2023-03-22T17:26:24.843Z,35.11
2023-03-22T17:27:24.814Z,36.97
2023-03-22T17:28:24.757Z,34.60
2023-03-22T17:30:24.689Z,36.48
2023-03-22T17:32:45.767Z,36.00
2023-03-22T17:33:25.611Z,36.18
2023-03-22T17:35:24.491Z,37.01
2023-03-22T17:36:24.494Z,36.03
2023-03-22T17:38:31.702Z,35.68
2023-03-22T17:39:48.408Z,35.92
2023-03-22T17:40:34.092Z,36.08
2023-03-22T17:41:25.325Z,36.15
2023-03-22T17:44:24.132Z,39.61
2023-03-22T17:45:27.047Z,37.50
2023-03-22T17:47:37.498Z,36.63
2023-03-22T17:48:25.023Z,36.10
2023-03-22T17:50:23.940Z,37.89
2023-03-22T17:51:23.879Z,39.54
2023-03-22T17:52:23.891Z,39.11
2023-03-22T17:54:09.473Z,40.93
2023-03-22T17:54:58.339Z,41.17
2023-03-22T18:01:23.611Z,41.47
2023-03-22T18:02:27.436Z,41.22
2023-03-22T18:04:23.505Z,41.48
2023-03-22T18:07:23.384Z,39.07
2023-03-22T18:10:23.293Z,40.15
2023-03-22T18:12:23.237Z,40.05
2023-03-22T18:13:23.210Z,39.33
2023-03-22T18:17:23.064Z,37.66
2023-03-22T18:18:22.994Z,37.47
2023-03-22T18:19:22.974Z,37.65
2023-03-22T18:20:39.782Z,36.70
2023-03-22T18:21:23.875Z,36.96
2023-03-22T18:22:22.826Z,37.44
2023-03-22T18:24:22.753Z,40.91
2023-03-22T18:28:22.615Z,37.53
2023-03-22T18:29:22.564Z,37.94
2023-03-22T18:31:22.568Z,38.64
2023-03-22T18:32:24.353Z,36.55
2023-03-22T18:33:23.421Z,37.54
2023-03-22T18:35:22.351Z,38.19
2023-03-22T18:36:22.390Z,39.18
2023-03-22T18:41:41.004Z,38.72
2023-03-22T18:42:30.234Z,38.89
2023-03-22T18:44:22.020Z,40.56
2023-03-22T18:45:24.891Z,41.28
2023-03-22T18:46:23.019Z,39.03
2023-03-22T18:47:21.914Z,39.50
2023-03-22T18:48:21.911Z,41.56
2023-03-22T18:49:21.850Z,40.72
2023-03-22T18:53:21.720Z,42.04
2023-03-22T18:55:47.631Z,39.44
2023-03-22T18:56:22.592Z,39.69
2023-03-22T18:58:21.530Z,39.49
2023-03-22T19:01:21.799Z,36.27
2023-03-22T19:05:21.290Z,37.73
2023-03-22T19:06:21.250Z,36.15
2023-03-22T19:08:27.142Z,37.93
2023-03-22T19:09:22.157Z,38.24
2023-03-22T19:10:21.111Z,38.42
2023-03-22T19:11:21.089Z,39.07
2023-03-22T19:13:21.005Z,38.65
2023-03-22T19:15:11.209Z,36.83
2023-03-22T19:17:20.888Z,37.98
2023-03-22T19:18:20.857Z,37.12
2023-03-22T19:19:20.839Z,37.43
2023-03-22T19:20:20.806Z,35.40
2023-03-22T19:23:20.698Z,38.90
2023-03-22T19:24:20.677Z,35.68
2023-03-22T19:29:20.488Z,35.72
2023-03-22T19:30:20.487Z,35.94
2023-03-22T19:32:21.273Z,37.10
2023-03-22T19:35:20.259Z,37.76
2023-03-22T19:36:20.261Z,35.29
2023-03-22T19:41:23.416Z,37.09
2023-03-22T19:41:45.104Z,37.28
2023-03-22T19:43:20.053Z,38.28
2023-03-22T19:44:20.062Z,37.48
2023-03-22T19:45:20.058Z,39.04
2023-03-22T19:47:22.069Z,38.44
2023-03-22T19:53:57.552Z,34.61
2023-03-22T19:55:19.699Z,35.11
2023-03-22T19:56:19.713Z,35.87
2023-03-22T19:57:19.753Z,36.73
2023-03-22T19:58:19.572Z,38.53
2023-03-22T20:00:44.926Z,37.02
2023-03-22T20:01:20.472Z,37.22
2023-03-22T20:02:19.420Z,37.22
2023-03-22T20:03:19.372Z,37.59
2023-03-22T20:05:19.310Z,34.10
2023-03-22T20:09:19.179Z,32.79
2023-03-22T20:10:19.145Z,29.72
2023-03-22T20:12:19.081Z,34.67
2023-03-22T20:13:19.042Z,33.09
2023-03-22T20:14:19.016Z,32.91
2023-03-22T20:19:18.861Z,28.61
2023-03-22T20:20:18.824Z,34.31
2023-03-22T20:23:18.698Z,31.27
2023-03-22T20:24:18.659Z,30.42
2023-03-22T20:25:18.661Z,33.19
2023-03-22T20:26:18.599Z,33.16
2023-03-22T20:27:18.592Z,32.76
2023-03-22T20:31:18.437Z,33.20
2023-03-22T20:32:18.414Z,28.95
2023-03-22T20:34:18.334Z,31.51
2023-03-22T20:35:18.309Z,27.92
2023-03-22T20:36:18.330Z,31.16
2023-03-22T20:40:18.150Z,31.53
2023-03-22T20:42:18.079Z,29.37
2023-03-22T20:46:17.951Z,31.22
2023-03-22T20:47:17.926Z,31.21
2023-03-22T20:48:17.885Z,30.34
2023-03-22T20:49:17.888Z,29.87
2023-03-22T20:51:17.795Z,31.17
2023-03-22T20:54:17.687Z,30.18
2023-03-22T20:55:17.655Z,31.60
2023-03-22T20:56:17.620Z,30.11
2023-03-22T20:59:17.505Z,27.37
2023-03-22T21:01:17.445Z,29.08
2023-03-22T21:03:17.371Z,29.19
2023-03-22T21:04:17.351Z,28.30
2023-03-22T21:05:17.336Z,28.50
2023-03-22T21:06:17.246Z,28.21
2023-03-22T21:08:17.180Z,28.30
2023-03-22T21:13:17.020Z,28.18
2023-03-22T21:14:17.004Z,26.40
2023-03-22T21:15:16.959Z,27.07
2023-03-22T21:16:16.951Z,28.18
2023-03-22T21:17:16.919Z,27.18
2023-03-22T21:18:16.861Z,26.41
2023-03-22T21:22:16.730Z,26.52
2023-03-22T21:23:16.700Z,27.24
2023-03-22T21:24:16.651Z,28.55
2023-03-22T21:25:16.637Z,25.88
2023-03-22T21:27:16.564Z,26.55
2023-03-22T21:31:16.424Z,29.17
2023-03-22T21:33:16.326Z,27.14
2023-03-22T21:35:16.264Z,27.89
2023-03-22T21:39:16.130Z,27.46
2023-03-22T21:41:16.055Z,27.49
2023-03-22T21:43:15.983Z,28.54
2023-03-22T21:44:15.952Z,26.58
2023-03-22T21:45:15.893Z,27.29
2023-03-22T21:50:15.723Z,28.34
2023-03-22T21:51:15.693Z,27.29
2023-03-22T21:53:15.614Z,26.43
2023-03-22T21:54:15.610Z,28.42
2023-03-22T21:56:15.529Z,27.34
2023-03-22T21:59:15.402Z,26.29
2023-03-22T22:02:15.346Z,27.30
2023-03-22T22:04:15.264Z,26.30
2023-03-22T22:05:15.234Z,28.06
2023-03-22T22:07:15.745Z,25.00
2023-03-22T22:08:15.166Z,27.28
2023-03-22T22:12:15.048Z,27.11
2023-03-22T22:14:14.973Z,28.52
2023-03-22T22:15:14.959Z,27.90
2023-03-22T22:16:14.923Z,26.80
2023-03-22T22:17:14.898Z,27.03
2023-03-22T22:18:14.873Z,27.02
2023-03-22T22:25:14.676Z,26.49
2023-03-22T22:26:14.660Z,25.84
2023-03-22T22:28:14.590Z,26.65
2023-03-22T22:29:14.548Z,26.58
2023-03-22T22:30:14.529Z,26.17
2023-03-22T22:34:14.411Z,25.46
2023-03-22T22:35:14.451Z,27.75
2023-03-22T22:36:14.348Z,26.14
2023-03-22T22:37:14.350Z,25.80
2023-03-22T22:40:14.220Z,28.30
2023-03-22T22:44:14.756Z,26.73
2023-03-22T22:45:14.075Z,28.23
2023-03-22T22:47:14.016Z,28.51
2023-03-22T22:49:13.942Z,26.19
2023-03-22T22:53:13.819Z,26.44
2023-03-22T22:54:13.779Z,26.26
2023-03-22T22:56:13.716Z,26.74
2023-03-22T22:57:13.684Z,26.58
2023-03-22T23:00:13.589Z,28.22
2023-03-22T23:02:13.521Z,28.52
2023-03-22T23:05:13.457Z,28.50
2023-03-22T23:06:13.398Z,28.71
2023-03-22T23:07:13.383Z,29.08
2023-03-22T23:09:13.293Z,28.49
2023-03-22T23:11:13.228Z,28.13
2023-03-22T23:13:13.185Z,27.51
2023-03-22T23:18:13.038Z,26.13
2023-03-22T23:20:13.030Z,27.21
2023-03-22T23:21:12.949Z,26.26
2023-03-22T23:23:12.931Z,26.63
2023-03-22T23:25:12.839Z,27.23
2023-03-22T23:30:12.672Z,27.09
2023-03-22T23:31:12.676Z,25.09
2023-03-22T23:32:12.655Z,28.02
2023-03-22T23:35:12.520Z,26.95
2023-03-22T23:36:12.474Z,25.39
2023-03-22T23:37:12.444Z,26.90
2023-03-22T23:39:12.409Z,28.21
2023-03-22T23:42:12.293Z,29.91
2023-03-22T23:45:13.148Z,27.49
2023-03-22T23:46:12.177Z,25.24
2023-03-22T23:47:12.121Z,29.25
2023-03-22T23:49:12.056Z,28.77
2023-03-22T23:54:11.893Z,27.62
2023-03-22T23:55:11.849Z,30.22
2023-03-22T23:56:11.809Z,27.00
2023-03-22T23:57:11.786Z,25.82
2023-03-22T23:59:11.711Z,26.80
